sensor_id;sensor_type;location;lat;lon;timestamp;pressure;altitude;pressure_sealevel;temperature;humidity
10706;BME280;5404;42.656;23.336;2023-02-18T00:02:09;95589.91;;;2.90;100.00
10706;BME280;5404;42.656;23.336;2023-02-18T00:04:34;95592.31;;;2.91;100.00
10706;BME280;5404;42.656;23.336;2023-02-18T00:07:00;95587.28;;;2.90;100.00
10706;BME280;5404;42.656;23.336;2023-02-18T00:09:25;95585.66;;;2.77;100.00
10706;BME280;5404;42.656;23.336;2023-02-18T00:11:51;95571.25;;;2.80;100.00
10706;BME280;5404;42.656;23.336;2023-02-18T00:14:16;95566.69;;;2.87;100.00
10706;BME280;5404;42.656;23.336;2023-02-18T00:16:43;95569.34;;;2.87;100.00
10706;BME280;5404;42.656;23.336;2023-02-18T00:19:12;95564.75;;;2.94;100.00
10706;BME280;5404;42.656;23.336;2023-02-18T00:21:38;95566.25;;;2.90;100.00
10706;BME280;5404;42.656;23.336;2023-02-18T00:24:05;95562.44;;;2.74;100.00
10706;BME280;5404;42.656;23.336;2023-02-18T00:26:31;95553.44;;;2.82;100.00
10706;BME280;5404;42.656;23.336;2023-02-18T00:28:57;95550.88;;;2.75;100.00
10706;BME280;5404;42.656;23.336;2023-02-18T00:31:26;95546.06;;;2.72;100.00
10706;BME280;5404;42.656;23.336;2023-02-18T00:33:53;95537.72;;;2.75;100.00
10706;BME280;5404;42.656;23.336;2023-02-18T00:36:20;95541.16;;;2.76;100.00
10706;BME280;5404;42.656;23.336;2023-02-18T00:38:49;95540.34;;;2.75;100.00
10706;BME280;5404;42.656;23.336;2023-02-18T00:41:15;95503.88;;;2.56;100.00
10706;BME280;5404;42.656;23.336;2023-02-18T00:43:41;95532.47;;;2.75;100.00
10706;BME280;5404;42.656;23.336;2023-02-18T00:46:06;95538.88;;;2.68;100.00
10706;BME280;5404;42.656;23.336;2023-02-18T00:48:33;95520.66;;;2.55;100.00
10706;BME280;5404;42.656;23.336;2023-02-18T00:51:00;95538.41;;;2.48;100.00
10706;BME280;5404;42.656;23.336;2023-02-18T00:53:27;95554.53;;;2.51;100.00
10706;BME280;5404;42.656;23.336;2023-02-18T00:55:52;95540.44;;;2.46;100.00
10706;BME280;5404;42.656;23.336;2023-02-18T00:58:18;95542.63;;;2.49;100.00
10706;BME280;5404;42.656;23.336;2023-02-18T01:00:44;95533.13;;;2.48;100.00
10706;BME280;5404;42.656;23.336;2023-02-18T01:03:09;95537.47;;;2.42;100.00
10706;BME280;5404;42.656;23.336;2023-02-18T01:05:37;95514.34;;;2.32;100.00
10706;BME280;5404;42.656;23.336;2023-02-18T01:08:04;95534.25;;;2.40;100.00
10706;BME280;5404;42.656;23.336;2023-02-18T01:10:30;95540.09;;;2.42;100.00
10706;BME280;5404;42.656;23.336;2023-02-18T01:12:56;95543.66;;;2.48;100.00
10706;BME280;5404;42.656;23.336;2023-02-18T01:15:22;95530.16;;;2.56;100.00
10706;BME280;5404;42.656;23.336;2023-02-18T01:17:47;95548.94;;;2.59;100.00
10706;BME280;5404;42.656;23.336;2023-02-18T01:20:13;95534.38;;;2.57;100.00
10706;BME280;5404;42.656;23.336;2023-02-18T01:22:39;95540.91;;;2.54;100.00
10706;BME280;5404;42.656;23.336;2023-02-18T01:25:06;95534.50;;;2.50;100.00
10706;BME280;5404;42.656;23.336;2023-02-18T01:27:31;95461.84;;;2.03;100.00
10706;BME280;5404;42.656;23.336;2023-02-18T01:29:57;95520.75;;;2.36;100.00
10706;BME280;5404;42.656;23.336;2023-02-18T01:32:22;95525.56;;;2.39;100.00
10706;BME280;5404;42.656;23.336;2023-02-18T01:34:48;95532.09;;;2.37;100.00
10706;BME280;5404;42.656;23.336;2023-02-18T01:37:13;95526.91;;;2.30;100.00
10706;BME280;5404;42.656;23.336;2023-02-18T01:39:39;95509.16;;;2.14;100.00
10706;BME280;5404;42.656;23.336;2023-02-18T01:42:05;95520.50;;;2.26;100.00
10706;BME280;5404;42.656;23.336;2023-02-18T01:44:34;95544.81;;;2.22;100.00
10706;BME280;5404;42.656;23.336;2023-02-18T01:46:59;95531.47;;;2.23;100.00
10706;BME280;5404;42.656;23.336;2023-02-18T01:49:29;95537.75;;;2.22;100.00
10706;BME280;5404;42.656;23.336;2023-02-18T01:51:59;95546.31;;;2.18;100.00
10706;BME280;5404;42.656;23.336;2023-02-18T01:54:31;95544.69;;;2.17;100.00
10706;BME280;5404;42.656;23.336;2023-02-18T01:57:09;95549.47;;;2.08;100.00
10706;BME280;5404;42.656;23.336;2023-02-18T01:59:38;95556.94;;;2.11;100.00
10706;BME280;5404;42.656;23.336;2023-02-18T02:02:07;95557.50;;;2.13;100.00
10706;BME280;5404;42.656;23.336;2023-02-18T02:04:35;95556.56;;;2.08;100.00
10706;BME280;5404;42.656;23.336;2023-02-18T02:07:00;95551.44;;;2.13;100.00
10706;BME280;5404;42.656;23.336;2023-02-18T02:09:28;95559.09;;;2.14;100.00
10706;BME280;5404;42.656;23.336;2023-02-18T02:23:13;95536.31;;;2.38;100.00
10706;BME280;5404;42.656;23.336;2023-02-18T02:39:39;95524.47;;;2.17;100.00
10706;BME280;5404;42.656;23.336;2023-02-18T02:42:33;95520.25;;;2.16;100.00
10706;BME280;5404;42.656;23.336;2023-02-18T02:50:55;95482.69;;;1.86;100.00
10706;BME280;5404;42.656;23.336;2023-02-18T02:53:27;95509.13;;;2.03;100.00
10706;BME280;5404;42.656;23.336;2023-02-18T02:55:54;95499.97;;;1.94;100.00
10706;BME280;5404;42.656;23.336;2023-02-18T02:58:21;95519.66;;;2.03;100.00
10706;BME280;5404;42.656;23.336;2023-02-18T03:00:55;95518.84;;;2.02;100.00
10706;BME280;5404;42.656;23.336;2023-02-18T03:06:32;95534.78;;;1.89;100.00
10706;BME280;5404;42.656;23.336;2023-02-18T03:11:46;95526.13;;;1.71;100.00
10706;BME280;5404;42.656;23.336;2023-02-18T03:17:21;95533.59;;;1.56;100.00
10706;BME280;5404;42.656;23.336;2023-02-18T03:19:53;95520.06;;;1.41;100.00
10706;BME280;5404;42.656;23.336;2023-02-18T03:22:28;95535.59;;;1.42;100.00
10706;BME280;5404;42.656;23.336;2023-02-18T03:24:56;95542.34;;;1.50;100.00
10706;BME280;5404;42.656;23.336;2023-02-18T03:27:36;95544.09;;;1.56;100.00
10706;BME280;5404;42.656;23.336;2023-02-18T03:30:10;95547.22;;;1.64;100.00
10706;BME280;5404;42.656;23.336;2023-02-18T03:32:38;95553.44;;;1.70;100.00
10706;BME280;5404;42.656;23.336;2023-02-18T03:35:09;95565.44;;;1.77;100.00
10706;BME280;5404;42.656;23.336;2023-02-18T03:37:41;95575.53;;;1.80;100.00
10706;BME280;5404;42.656;23.336;2023-02-18T03:40:09;95584.78;;;1.83;100.00
10706;BME280;5404;42.656;23.336;2023-02-18T03:42:36;95567.56;;;1.87;100.00
10706;BME280;5404;42.656;23.336;2023-02-18T03:45:01;95575.22;;;1.88;100.00
10706;BME280;5404;42.656;23.336;2023-02-18T03:47:27;95576.81;;;1.89;100.00
10706;BME280;5404;42.656;23.336;2023-02-18T03:49:53;95586.19;;;1.85;100.00
10706;BME280;5404;42.656;23.336;2023-02-18T03:52:19;95584.34;;;1.86;100.00
10706;BME280;5404;42.656;23.336;2023-02-18T03:54:44;95590.03;;;1.83;100.00
10706;BME280;5404;42.656;23.336;2023-02-18T03:57:10;95599.81;;;1.76;100.00
10706;BME280;5404;42.656;23.336;2023-02-18T03:59:35;95595.38;;;1.76;100.00
10706;BME280;5404;42.656;23.336;2023-02-18T04:02:02;95586.69;;;1.76;100.00
10706;BME280;5404;42.656;23.336;2023-02-18T04:04:28;95578.81;;;1.76;100.00
10706;BME280;5404;42.656;23.336;2023-02-18T04:06:54;95574.34;;;1.76;100.00
10706;BME280;5404;42.656;23.336;2023-02-18T04:09:20;95572.69;;;1.82;100.00
10706;BME280;5404;42.656;23.336;2023-02-18T04:11:46;95556.69;;;1.83;100.00
10706;BME280;5404;42.656;23.336;2023-02-18T04:14:13;95567.69;;;1.92;100.00
10706;BME280;5404;42.656;23.336;2023-02-18T04:16:39;95565.19;;;1.97;100.00
10706;BME280;5404;42.656;23.336;2023-02-18T04:19:05;95550.53;;;1.89;100.00
10706;BME280;5404;42.656;23.336;2023-02-18T04:21:30;95557.09;;;1.98;100.00
10706;BME280;5404;42.656;23.336;2023-02-18T04:23:56;95557.78;;;1.94;100.00
10706;BME280;5404;42.656;23.336;2023-02-18T04:26:21;95548.22;;;1.81;100.00
10706;BME280;5404;42.656;23.336;2023-02-18T04:28:47;95542.47;;;1.73;100.00
10706;BME280;5404;42.656;23.336;2023-02-18T04:31:13;95541.03;;;1.77;100.00
10706;BME280;5404;42.656;23.336;2023-02-18T04:33:39;95541.03;;;1.77;100.00
10706;BME280;5404;42.656;23.336;2023-02-18T04:36:06;95539.84;;;1.73;100.00
10706;BME280;5404;42.656;23.336;2023-02-18T04:38:32;95535.69;;;1.65;100.00
10706;BME280;5404;42.656;23.336;2023-02-18T04:40:57;95537.19;;;1.61;100.00
10706;BME280;5404;42.656;23.336;2023-02-18T04:43:23;95546.88;;;1.61;100.00
10706;BME280;5404;42.656;23.336;2023-02-18T04:45:48;95538.50;;;1.52;100.00
10706;BME280;5404;42.656;23.336;2023-02-18T04:48:14;95549.34;;;1.38;100.00
10706;BME280;5404;42.656;23.336;2023-02-18T04:50:39;95546.53;;;1.39;100.00
10706;BME280;5404;42.656;23.336;2023-02-18T04:53:05;95530.53;;;1.23;100.00
10706;BME280;5404;42.656;23.336;2023-02-18T04:55:30;95534.25;;;1.33;100.00
10706;BME280;5404;42.656;23.336;2023-02-18T04:57:56;95552.06;;;1.49;100.00
10706;BME280;5404;42.656;23.336;2023-02-18T05:00:21;95548.84;;;1.47;100.00
10706;BME280;5404;42.656;23.336;2023-02-18T05:02:47;95563.16;;;1.51;100.00
10706;BME280;5404;42.656;23.336;2023-02-18T05:05:13;95570.38;;;1.56;100.00
10706;BME280;5404;42.656;23.336;2023-02-18T05:07:39;95566.50;;;1.58;100.00
10706;BME280;5404;42.656;23.336;2023-02-18T05:10:07;95587.22;;;1.66;100.00
10706;BME280;5404;42.656;23.336;2023-02-18T05:12:33;95581.38;;;1.64;100.00
10706;BME280;5404;42.656;23.336;2023-02-18T05:14:58;95587.22;;;1.66;100.00
10706;BME280;5404;42.656;23.336;2023-02-18T05:17:24;95575.75;;;1.61;100.00
10706;BME280;5404;42.656;23.336;2023-02-18T05:19:52;95562.34;;;1.51;100.00
10706;BME280;5404;42.656;23.336;2023-02-18T05:22:18;95569.19;;;1.52;100.00
10706;BME280;5404;42.656;23.336;2023-02-18T05:24:44;95576.13;;;1.46;100.00
10706;BME280;5404;42.656;23.336;2023-02-18T05:27:09;95572.47;;;1.47;100.00
10706;BME280;5404;42.656;23.336;2023-02-18T05:29:35;95553.38;;;1.58;100.00
10706;BME280;5404;42.656;23.336;2023-02-18T05:32:00;95558.78;;;1.63;100.00
10706;BME280;5404;42.656;23.336;2023-02-18T05:34:26;95548.19;;;1.70;100.00
10706;BME280;5404;42.656;23.336;2023-02-18T05:36:51;95550.50;;;1.78;100.00
10706;BME280;5404;42.656;23.336;2023-02-18T05:39:18;95533.63;;;1.85;100.00
10706;BME280;5404;42.656;23.336;2023-02-18T05:41:43;95546.59;;;1.98;100.00
10706;BME280;5404;42.656;23.336;2023-02-18T05:44:09;95542.16;;;2.10;100.00
10706;BME280;5404;42.656;23.336;2023-02-18T05:46:53;95538.56;;;2.23;100.00
10706;BME280;5404;42.656;23.336;2023-02-18T05:49:18;95547.63;;;2.27;100.00
10706;BME280;5404;42.656;23.336;2023-02-18T05:51:44;95560.06;;;2.31;100.00
10706;BME280;5404;42.656;23.336;2023-02-18T05:54:09;95563.72;;;2.30;100.00
10706;BME280;5404;42.656;23.336;2023-02-18T05:56:34;95536.91;;;2.10;100.00
10706;BME280;5404;42.656;23.336;2023-02-18T05:59:00;95578.16;;;2.39;100.00
10706;BME280;5404;42.656;23.336;2023-02-18T06:01:25;95549.66;;;2.25;100.00
10706;BME280;5404;42.656;23.336;2023-02-18T06:03:51;95588.63;;;2.58;100.00
10706;BME280;5404;42.656;23.336;2023-02-18T06:06:16;95577.19;;;2.64;100.00
10706;BME280;5404;42.656;23.336;2023-02-18T06:08:42;95580.97;;;2.68;100.00
10706;BME280;5404;42.656;23.336;2023-02-18T06:11:08;95586.13;;;2.74;100.00
10706;BME280;5404;42.656;23.336;2023-02-18T06:13:33;95562.91;;;2.83;100.00
10706;BME280;5404;42.656;23.336;2023-02-18T06:15:59;95569.44;;;2.92;100.00
10706;BME280;5404;42.656;23.336;2023-02-18T06:18:24;95574.25;;;2.95;100.00
10706;BME280;5404;42.656;23.336;2023-02-18T06:20:50;95567.28;;;3.12;100.00
10706;BME280;5404;42.656;23.336;2023-02-18T06:23:15;95556.75;;;3.12;100.00
10706;BME280;5404;42.656;23.336;2023-02-18T06:25:41;95511.66;;;2.97;100.00
10706;BME280;5404;42.656;23.336;2023-02-18T06:28:07;95568.06;;;3.35;100.00
10706;BME280;5404;42.656;23.336;2023-02-18T06:30:32;95562.56;;;3.48;100.00
10706;BME280;5404;42.656;23.336;2023-02-18T06:32:59;95549.69;;;3.64;100.00
10706;BME280;5404;42.656;23.336;2023-02-18T06:35:28;95539.53;;;3.84;100.00
10706;BME280;5404;42.656;23.336;2023-02-18T06:37:53;95542.25;;;4.00;100.00
10706;BME280;5404;42.656;23.336;2023-02-18T06:40:19;95520.94;;;4.18;100.00
10706;BME280;5404;42.656;23.336;2023-02-18T06:42:44;95532.88;;;4.37;100.00
10706;BME280;5404;42.656;23.336;2023-02-18T06:45:10;95540.38;;;4.57;100.00
10706;BME280;5404;42.656;23.336;2023-02-18T06:47:35;95535.50;;;4.65;100.00
10706;BME280;5404;42.656;23.336;2023-02-18T06:50:01;95537.16;;;4.71;100.00
10706;BME280;5404;42.656;23.336;2023-02-18T06:52:26;95530.44;;;4.81;100.00
10706;BME280;5404;42.656;23.336;2023-02-18T06:54:51;95537.00;;;4.95;100.00
10706;BME280;5404;42.656;23.336;2023-02-18T06:57:18;95534.75;;;5.03;100.00
10706;BME280;5404;42.656;23.336;2023-02-18T06:59:44;95535.88;;;5.07;100.00
10706;BME280;5404;42.656;23.336;2023-02-18T07:02:11;95533.94;;;5.19;100.00
10706;BME280;5404;42.656;23.336;2023-02-18T07:04:38;95536.41;;;5.26;100.00
10706;BME280;5404;42.656;23.336;2023-02-18T07:07:03;95533.34;;;5.34;100.00
10706;BME280;5404;42.656;23.336;2023-02-18T07:09:29;95522.13;;;5.43;100.00
10706;BME280;5404;42.656;23.336;2023-02-18T07:11:54;95531.44;;;5.51;100.00
10706;BME280;5404;42.656;23.336;2023-02-18T07:14:19;95529.56;;;5.68;100.00
10706;BME280;5404;42.656;23.336;2023-02-18T07:16:45;95524.78;;;5.86;100.00
10706;BME280;5404;42.656;23.336;2023-02-18T07:19:10;95508.91;;;6.08;100.00
10706;BME280;5404;42.656;23.336;2023-02-18T07:21:36;95513.16;;;6.36;100.00
10706;BME280;5404;42.656;23.336;2023-02-18T07:24:01;95511.47;;;6.56;100.00
10706;BME280;5404;42.656;23.336;2023-02-18T07:26:28;95496.00;;;6.75;100.00
10706;BME280;5404;42.656;23.336;2023-02-18T07:28:53;95514.66;;;6.90;100.00
10706;BME280;5404;42.656;23.336;2023-02-18T07:31:19;95497.75;;;6.96;100.00
10706;BME280;5404;42.656;23.336;2023-02-18T07:33:46;95488.47;;;6.93;100.00
10706;BME280;5404;42.656;23.336;2023-02-18T07:36:11;95505.22;;;7.04;100.00
10706;BME280;5404;42.656;23.336;2023-02-18T07:38:38;95507.88;;;7.04;100.00
10706;BME280;5404;42.656;23.336;2023-02-18T07:41:03;95533.50;;;6.93;100.00
10706;BME280;5404;42.656;23.336;2023-02-18T07:43:32;95513.78;;;6.79;100.00
10706;BME280;5404;42.656;23.336;2023-02-18T07:45:58;95527.28;;;6.78;100.00
10706;BME280;5404;42.656;23.336;2023-02-18T07:48:24;95538.69;;;6.78;100.00
10706;BME280;5404;42.656;23.336;2023-02-18T07:50:49;95544.84;;;6.89;100.00
10706;BME280;5404;42.656;23.336;2023-02-18T07:53:15;95537.06;;;7.09;100.00
10706;BME280;5404;42.656;23.336;2023-02-18T07:55:41;95546.50;;;7.32;100.00
10706;BME280;5404;42.656;23.336;2023-02-18T07:58:21;95536.81;;;7.52;100.00
10706;BME280;5404;42.656;23.336;2023-02-18T08:00:48;95535.56;;;7.70;100.00
10706;BME280;5404;42.656;23.336;2023-02-18T08:03:17;95531.34;;;7.74;100.00
10706;BME280;5404;42.656;23.336;2023-02-18T08:05:43;95517.63;;;7.92;100.00
10706;BME280;5404;42.656;23.336;2023-02-18T08:08:14;95517.09;;;7.95;100.00
10706;BME280;5404;42.656;23.336;2023-02-18T08:10:40;95516.63;;;8.08;100.00
10706;BME280;5404;42.656;23.336;2023-02-18T08:13:07;95494.03;;;8.00;100.00
10706;BME280;5404;42.656;23.336;2023-02-18T08:15:34;95515.63;;;8.24;100.00
10706;BME280;5404;42.656;23.336;2023-02-18T08:17:59;95513.81;;;8.50;100.00
10706;BME280;5404;42.656;23.336;2023-02-18T08:20:25;95515.69;;;8.89;98.05
10706;BME280;5404;42.656;23.336;2023-02-18T08:22:51;95512.78;;;8.96;93.67
10706;BME280;5404;42.656;23.336;2023-02-18T08:25:16;95499.22;;;8.97;91.95
10706;BME280;5404;42.656;23.336;2023-02-18T08:27:42;95459.09;;;8.69;91.75
10706;BME280;5404;42.656;23.336;2023-02-18T08:30:08;95493.66;;;8.89;91.25
10706;BME280;5404;42.656;23.336;2023-02-18T08:32:34;95505.34;;;8.88;90.85
10706;BME280;5404;42.656;23.336;2023-02-18T08:34:59;95493.66;;;8.99;91.31
10706;BME280;5404;42.656;23.336;2023-02-18T08:37:25;95450.56;;;9.07;90.35
10706;BME280;5404;42.656;23.336;2023-02-18T08:39:50;95486.09;;;9.56;87.88
10706;BME280;5404;42.656;23.336;2023-02-18T08:42:16;95496.97;;;9.70;84.00
10706;BME280;5404;42.656;23.336;2023-02-18T08:44:41;95479.84;;;9.86;84.55
10706;BME280;5404;42.656;23.336;2023-02-18T08:47:07;95482.47;;;9.96;83.66
10706;BME280;5404;42.656;23.336;2023-02-18T08:49:32;95488.78;;;10.15;81.93
10706;BME280;5404;42.656;23.336;2023-02-18T08:51:58;95486.34;;;10.28;80.47
10706;BME280;5404;42.656;23.336;2023-02-18T08:54:23;95486.03;;;10.35;78.15
10706;BME280;5404;42.656;23.336;2023-02-18T08:56:53;95503.06;;;10.34;78.20
10706;BME280;5404;42.656;23.336;2023-02-18T08:59:19;95505.69;;;10.39;78.10
10706;BME280;5404;42.656;23.336;2023-02-18T09:01:45;95503.50;;;10.51;78.56
10706;BME280;5404;42.656;23.336;2023-02-18T09:04:11;95495.44;;;10.61;76.31
10706;BME280;5404;42.656;23.336;2023-02-18T09:06:37;95492.38;;;10.78;74.47
10706;BME280;5404;42.656;23.336;2023-02-18T09:09:03;95498.88;;;11.00;74.25
10706;BME280;5404;42.656;23.336;2023-02-18T09:11:28;95489.25;;;11.33;71.27
10706;BME280;5404;42.656;23.336;2023-02-18T09:13:54;95501.50;;;11.57;68.85
10706;BME280;5404;42.656;23.336;2023-02-18T09:16:19;95512.13;;;11.67;67.72
10706;BME280;5404;42.656;23.336;2023-02-18T09:18:46;95489.81;;;11.53;66.92
10706;BME280;5404;42.656;23.336;2023-02-18T09:21:13;95493.28;;;11.83;67.25
10706;BME280;5404;42.656;23.336;2023-02-18T09:23:40;95480.31;;;11.95;66.62
10706;BME280;5404;42.656;23.336;2023-02-18T09:26:08;95492.56;;;12.19;65.03
10706;BME280;5404;42.656;23.336;2023-02-18T09:28:35;95489.06;;;12.74;64.20
10706;BME280;5404;42.656;23.336;2023-02-18T09:31:10;95479.19;;;14.21;59.07
10706;BME280;5404;42.656;23.336;2023-02-18T09:33:38;95467.50;;;15.54;53.07
10706;BME280;5404;42.656;23.336;2023-02-18T09:36:05;95451.50;;;17.13;48.54
10706;BME280;5404;42.656;23.336;2023-02-18T09:38:33;95456.09;;;18.42;42.27
10706;BME280;5404;42.656;23.336;2023-02-18T09:41:04;95448.72;;;18.93;39.86
10706;BME280;5404;42.656;23.336;2023-02-18T09:43:44;95447.03;;;19.41;38.83
10706;BME280;5404;42.656;23.336;2023-02-18T09:46:34;95445.06;;;20.47;36.91
10706;BME280;5404;42.656;23.336;2023-02-18T09:49:02;95444.31;;;21.84;34.40
10706;BME280;5404;42.656;23.336;2023-02-18T09:51:29;95444.78;;;22.52;32.43
10706;BME280;5404;42.656;23.336;2023-02-18T09:53:54;95449.78;;;23.39;30.77
10706;BME280;5404;42.656;23.336;2023-02-18T09:56:29;95453.69;;;22.84;30.04
10706;BME280;5404;42.656;23.336;2023-02-18T09:58:58;95457.13;;;22.15;30.92
10706;BME280;5404;42.656;23.336;2023-02-18T10:01:31;95441.38;;;21.46;31.08
10706;BME280;5404;42.656;23.336;2023-02-18T10:04:03;95446.69;;;20.24;32.40
10706;BME280;5404;42.656;23.336;2023-02-18T10:06:32;95444.91;;;19.59;33.79
10706;BME280;5404;42.656;23.336;2023-02-18T10:09:13;95442.91;;;19.68;34.30
10706;BME280;5404;42.656;23.336;2023-02-18T10:11:47;95439.56;;;20.31;33.71
10706;BME280;5404;42.656;23.336;2023-02-18T10:14:13;95433.19;;;21.15;32.58
10706;BME280;5404;42.656;23.336;2023-02-18T10:16:42;95431.19;;;22.02;31.52
10706;BME280;5404;42.656;23.336;2023-02-18T10:19:23;95429.03;;;22.58;30.08
10706;BME280;5404;42.656;23.336;2023-02-18T10:21:52;95431.44;;;22.97;30.07
10706;BME280;5404;42.656;23.336;2023-02-18T10:27:09;95427.03;;;23.69;28.73
10706;BME280;5404;42.656;23.336;2023-02-18T10:29:40;95422.19;;;23.59;28.46
10706;BME280;5404;42.656;23.336;2023-02-18T10:32:15;95414.41;;;23.39;28.93
10706;BME280;5404;42.656;23.336;2023-02-18T10:45:30;95405.38;;;22.77;28.84
10706;BME280;5404;42.656;23.336;2023-02-18T10:50:37;95386.34;;;23.16;28.34
10706;BME280;5404;42.656;23.336;2023-02-18T10:53:33;95383.94;;;23.10;28.17
10706;BME280;5404;42.656;23.336;2023-02-18T10:56:00;95380.25;;;23.22;28.56
10706;BME280;5404;42.656;23.336;2023-02-18T10:58:36;95370.63;;;24.15;27.64
10706;BME280;5404;42.656;23.336;2023-02-18T11:01:13;95358.44;;;24.91;26.66
10706;BME280;5404;42.656;23.336;2023-02-18T11:03:43;95372.38;;;24.82;26.47
10706;BME280;5404;42.656;23.336;2023-02-18T11:08:47;95354.97;;;23.18;27.72
10706;BME280;5404;42.656;23.336;2023-02-18T11:11:21;95357.25;;;22.24;28.15
10706;BME280;5404;42.656;23.336;2023-02-18T11:13:54;95353.72;;;21.42;29.39
10706;BME280;5404;42.656;23.336;2023-02-18T11:16:22;95351.63;;;21.51;29.85
10706;BME280;5404;42.656;23.336;2023-02-18T11:18:49;95334.91;;;21.96;29.16
10706;BME280;5404;42.656;23.336;2023-02-18T11:23:48;95333.72;;;21.78;29.37
10706;BME280;5404;42.656;23.336;2023-02-18T11:26:17;95324.00;;;21.46;29.38
10706;BME280;5404;42.656;23.336;2023-02-18T11:28:50;95313.91;;;20.72;30.24
10706;BME280;5404;42.656;23.336;2023-02-18T11:31:21;95313.50;;;20.58;30.87
10706;BME280;5404;42.656;23.336;2023-02-18T11:33:51;95289.03;;;20.54;30.75
10706;BME280;5404;42.656;23.336;2023-02-18T11:36:28;95304.53;;;20.69;30.76
10706;BME280;5404;42.656;23.336;2023-02-18T11:38:57;95298.69;;;21.11;30.49
10706;BME280;5404;42.656;23.336;2023-02-18T11:41:34;95292.91;;;20.69;30.44
10706;BME280;5404;42.656;23.336;2023-02-18T11:44:01;95290.28;;;20.29;30.57
10706;BME280;5404;42.656;23.336;2023-02-18T11:46:28;95287.63;;;20.45;30.65
10706;BME280;5404;42.656;23.336;2023-02-18T11:48:54;95278.16;;;20.66;30.67
10706;BME280;5404;42.656;23.336;2023-02-18T11:51:27;95275.28;;;21.03;30.04
10706;BME280;5404;42.656;23.336;2023-02-18T11:54:02;95267.69;;;21.39;30.14
10706;BME280;5404;42.656;23.336;2023-02-18T11:56:33;95267.28;;;21.87;29.09
10706;BME280;5404;42.656;23.336;2023-02-18T11:59:01;95238.97;;;22.23;28.70
10706;BME280;5404;42.656;23.336;2023-02-18T12:01:50;95263.09;;;22.09;28.58
10706;BME280;5404;42.656;23.336;2023-02-18T12:04:29;95233.75;;;22.15;28.34
10706;BME280;5404;42.656;23.336;2023-02-18T12:07:05;95237.72;;;22.02;28.54
10706;BME280;5404;42.656;23.336;2023-02-18T12:09:40;95226.31;;;21.77;28.30
10706;BME280;5404;42.656;23.336;2023-02-18T12:12:18;95230.34;;;21.02;29.20
10706;BME280;5404;42.656;23.336;2023-02-18T12:14:47;95223.03;;;20.90;29.73
10706;BME280;5404;42.656;23.336;2023-02-18T12:22:29;95232.78;;;20.48;29.66
10706;BME280;5404;42.656;23.336;2023-02-18T12:51:07;95189.69;;;18.88;31.85
10706;BME280;5404;42.656;23.336;2023-02-18T13:09:50;95204.13;;;18.92;32.58
10706;BME280;5404;42.656;23.336;2023-02-18T13:15:35;95205.34;;;18.94;32.39
10706;BME280;5404;42.656;23.336;2023-02-18T13:18:08;95199.25;;;18.85;32.61
10706;BME280;5404;42.656;23.336;2023-02-18T13:20:48;95193.69;;;18.57;32.70
10706;BME280;5404;42.656;23.336;2023-02-18T13:23:23;95199.06;;;18.45;32.70
10706;BME280;5404;42.656;23.336;2023-02-18T13:25:55;95192.25;;;18.27;33.29
10706;BME280;5404;42.656;23.336;2023-02-18T13:34:36;95196.41;;;18.70;32.97
10706;BME280;5404;42.656;23.336;2023-02-18T13:40:21;95194.50;;;18.25;33.29
10706;BME280;5404;42.656;23.336;2023-02-18T13:42:51;95200.00;;;18.29;33.45
10706;BME280;5404;42.656;23.336;2023-02-18T13:45:28;95198.31;;;17.92;33.81
10706;BME280;5404;42.656;23.336;2023-02-18T13:47:55;95195.75;;;17.95;35.10
10706;BME280;5404;42.656;23.336;2023-02-18T13:52:56;95200.97;;;17.59;36.77
10706;BME280;5404;42.656;23.336;2023-02-18T13:55:56;95190.97;;;17.30;37.35
10706;BME280;5404;42.656;23.336;2023-02-18T14:06:34;95187.84;;;16.45;39.66
10706;BME280;5404;42.656;23.336;2023-02-18T14:11:44;95190.50;;;15.98;41.02
10706;BME280;5404;42.656;23.336;2023-02-18T14:27:33;95198.25;;;15.40;43.14
10706;BME280;5404;42.656;23.336;2023-02-18T14:30:13;95197.72;;;15.30;43.64
10706;BME280;5404;42.656;23.336;2023-02-18T14:32:40;95186.47;;;15.10;43.60
10706;BME280;5404;42.656;23.336;2023-02-18T14:35:45;95199.09;;;15.10;43.96
10706;BME280;5404;42.656;23.336;2023-02-18T14:51:30;95190.94;;;15.15;44.95
10706;BME280;5404;42.656;23.336;2023-02-18T14:54:03;95190.31;;;15.27;44.98
10706;BME280;5404;42.656;23.336;2023-02-18T14:56:31;95193.00;;;15.35;44.65
10706;BME280;5404;42.656;23.336;2023-02-18T14:59:02;95185.28;;;15.34;44.97
10706;BME280;5404;42.656;23.336;2023-02-18T15:01:35;95187.78;;;15.30;45.17
10706;BME280;5404;42.656;23.336;2023-02-18T15:04:01;95161.22;;;15.03;44.97
10706;BME280;5404;42.656;23.336;2023-02-18T15:08:53;95183.16;;;15.05;45.92
10706;BME280;5404;42.656;23.336;2023-02-18T15:11:21;95178.53;;;14.88;46.39
10706;BME280;5404;42.656;23.336;2023-02-18T15:13:48;95194.75;;;14.75;47.25
10706;BME280;5404;42.656;23.336;2023-02-18T15:16:26;95181.59;;;14.56;47.66
10706;BME280;5404;42.656;23.336;2023-02-18T15:19:00;95191.81;;;14.46;47.97
10706;BME280;5404;42.656;23.336;2023-02-18T15:21:32;95185.72;;;14.32;48.98
10706;BME280;5404;42.656;23.336;2023-02-18T15:24:29;95192.81;;;14.28;49.53
10706;BME280;5404;42.656;23.336;2023-02-18T15:26:59;95185.00;;;14.18;50.12
10706;BME280;5404;42.656;23.336;2023-02-18T15:29:25;95179.09;;;14.07;50.27
10706;BME280;5404;42.656;23.336;2023-02-18T15:31:54;95173.69;;;13.98;50.93
10706;BME280;5404;42.656;23.336;2023-02-18T15:34:34;95171.88;;;13.85;51.63
10706;BME280;5404;42.656;23.336;2023-02-18T15:37:01;95177.69;;;13.79;51.96
10706;BME280;5404;42.656;23.336;2023-02-18T15:39:27;95159.59;;;13.62;52.71
10706;BME280;5404;42.656;23.336;2023-02-18T15:42:26;95171.84;;;13.55;53.61
10706;BME280;5404;42.656;23.336;2023-02-18T15:45:17;95167.19;;;13.47;54.14
10706;BME280;5404;42.656;23.336;2023-02-18T15:47:46;95172.06;;;13.45;54.49
10706;BME280;5404;42.656;23.336;2023-02-18T15:50:22;95161.00;;;13.38;55.37
10706;BME280;5404;42.656;23.336;2023-02-18T15:52:48;95123.31;;;13.12;55.80